Time;durP1;ratioP1;P1;durP2;ratioP2;P2;SDS_P1;SDS_P2;PMS_P1;PMS_P2;Temp;Humidity;BMP_temperature;BMP_pressure;BME280_temperature;BME280_humidity;BME280_pressure;Samples;Min_cycle;Max_cycle;Signal;HPM_P1;HPM_P2
2021/05/23 00:00:23;;;;;;;50.73;17.47;;;;;;;17.72;43.22;100141.06;5093725;28;20480;-54
2021/05/23 00:02:50;;;;;;;29.03;10.13;;;;;;;18.63;42.06;100137.66;5097596;28;20477;-50
2021/05/23 00:05:20;;;;;;;8.53;2.27;;;;;;;18.16;42.49;100142.88;5094766;28;20492;-50
2021/05/23 00:07:53;;;;;;;10.53;3.00;;;;;;;17.96;43.00;100145.47;5097049;28;20468;-50
2021/05/23 00:10:22;;;;;;;45.50;20.20;;;;;;;18.11;42.59;100143.78;5093241;28;20481;-49
2021/05/23 00:12:49;;;;;;;37.80;14.03;;;;;;;18.53;41.76;100142.03;5097056;28;20780;-49
2021/05/23 00:15:21;;;;;;;33.17;14.23;;;;;;;18.40;42.50;100140.31;5095990;28;20466;-53
2021/05/23 00:17:48;;;;;;;17.80;6.40;;;;;;;17.81;43.61;100138.47;5097249;28;20462;-50
2021/05/23 00:20:15;;;;;;;10.27;3.30;;;;;;;17.88;43.17;100140.22;5091072;28;20575;-49
2021/05/23 00:22:42;;;;;;;27.00;11.17;;;;;;;17.96;43.19;100135.03;5091073;28;20489;-49
2021/05/23 00:25:11;;;;;;;7.57;2.27;;;;;;;18.02;43.11;100129.81;5076501;28;20489;-48
2021/05/23 00:27:38;;;;;;;25.47;9.57;;;;;;;17.17;44.41;100138.25;5077322;28;20455;-52
2021/05/23 00:30:07;;;;;;;27.30;9.93;;;;;;;17.56;44.32;100130.59;5092974;28;20492;-51
2021/05/23 00:32:35;;;;;;;10.20;3.63;;;;;;;17.67;43.82;100147.16;5096845;28;20955;-52
2021/05/23 00:35:02;;;;;;;7.27;3.47;;;;;;;17.61;44.01;100139.31;5096618;28;20476;-49
2021/05/23 00:37:29;;;;;;;9.50;2.90;;;;;;;17.50;44.65;100135.78;5097407;28;20458;-53
2021/05/23 00:39:56;;;;;;;8.00;2.47;;;;;;;16.84;45.19;100143.28;5096394;28;20481;-52
2021/05/23 00:42:23;;;;;;;12.33;4.50;;;;;;;17.84;43.66;100143.69;5097098;28;20552;-53
2021/05/23 00:44:50;;;;;;;20.73;6.50;;;;;;;17.40;43.88;100140.09;5096258;28;20483;-50
2021/05/23 00:47:18;;;;;;;15.77;5.20;;;;;;;17.38;44.27;100140.09;5097417;28;20483;-52
2021/05/23 00:49:46;;;;;;;20.30;6.20;;;;;;;17.87;43.23;100145.44;5095885;28;20473;-51
2021/05/23 00:52:13;;;;;;;19.10;6.53;;;;;;;17.46;43.29;100144.47;5096779;28;20813;-50
2021/05/23 00:54:40;;;;;;;6.47;2.80;;;;;;;17.88;43.41;100148.06;5096245;28;20473;-51
2021/05/23 00:57:07;;;;;;;15.80;5.57;;;;;;;17.04;44.01;100155.59;5097096;28;20468;-52
2021/05/23 00:59:34;;;;;;;12.30;2.70;;;;;;;17.62;43.36;100155.81;5095872;28;20784;-51
2021/05/23 01:02:39;;;;;;;5.00;1.87;;;;;;;17.64;42.93;100148.88;5096552;28;20462;-49
2021/05/23 01:05:07;;;;;;;6.67;2.37;;;;;;;17.45;43.18;100148.81;5095439;28;20481;-51
2021/05/23 01:07:34;;;;;;;7.30;2.27;;;;;;;17.83;42.61;100149.78;5091300;28;20461;-52
2021/05/23 01:10:06;;;;;;;8.70;2.40;;;;;;;17.90;42.69;100155.91;5095300;28;20747;-51
2021/05/23 01:13:37;;;;;;;6.13;2.07;;;;;;;17.75;42.55;100156.72;5095830;28;20501;-51
2021/05/23 01:16:07;;;;;;;10.17;2.47;;;;;;;17.86;42.58;100152.41;5092999;28;20482;-52
2021/05/23 01:18:41;;;;;;;6.23;1.50;;;;;;;17.11;43.45;100148.66;5096146;28;20909;-48
2021/05/23 01:21:09;;;;;;;5.97;2.30;;;;;;;17.95;41.70;100165.47;5094510;28;20475;-46
2021/05/23 01:23:41;;;;;;;10.03;2.20;;;;;;;17.64;42.01;100170.59;5093429;28;20485;-48
2021/05/23 01:26:10;;;;;;;7.17;2.00;;;;;;;17.33;42.08;100170.47;5094349;28;20476;-46
2021/05/23 01:28:40;;;;;;;8.67;1.80;;;;;;;17.76;41.94;100174.13;5093387;28;20463;-53
2021/05/23 01:31:11;;;;;;;7.40;1.80;;;;;;;17.49;42.58;100175.78;5094168;28;20475;-48
2021/05/23 01:33:38;;;;;;;6.60;2.50;;;;;;;18.30;41.02;100176.00;5093478;28;20521;-48
2021/05/23 01:36:06;;;;;;;8.13;2.33;;;;;;;17.50;42.88;100180.13;5094129;28;20477;-49
2021/05/23 01:38:35;;;;;;;11.53;2.00;;;;;;;17.60;42.91;100183.63;5095900;28;20547;-51
2021/05/23 01:41:05;;;;;;;9.00;2.10;;;;;;;17.94;42.35;100178.50;5094556;28;20484;-48
2021/05/23 01:43:35;;;;;;;11.57;2.53;;;;;;;17.78;42.84;100182.81;5095565;28;20556;-47
2021/05/23 01:46:03;;;;;;;5.07;1.70;;;;;;;17.14;44.02;100179.97;5094359;28;20564;-51
2021/05/23 01:48:31;;;;;;;12.73;2.10;;;;;;;17.59;42.94;100177.53;5095861;28;20540;-48
2021/05/23 01:50:58;;;;;;;6.37;1.70;;;;;;;17.66;42.75;100194.09;5091615;28;20561;-48
2021/05/23 01:53:25;;;;;;;9.10;2.80;;;;;;;18.08;41.75;100192.50;5095492;28;20588;-50
2021/05/23 01:55:52;;;;;;;9.83;2.37;;;;;;;17.88;42.41;100192.41;5094404;28;20970;-48
2021/05/23 01:58:20;;;;;;;5.83;1.80;;;;;;;17.62;43.22;100189.72;5095724;28;20460;-47
2021/05/23 02:00:49;;;;;;;15.37;4.33;;;;;;;17.78;42.25;100194.13;5093938;28;20990;-47
2021/05/23 02:03:19;;;;;;;8.07;2.20;;;;;;;17.76;42.32;100200.22;5095266;28;20483;-47
2021/05/23 02:05:48;;;;;;;6.30;1.93;;;;;;;17.62;42.38;100197.53;5093817;28;20481;-50
2021/05/23 02:08:17;;;;;;;7.03;2.30;;;;;;;17.72;42.16;100195.84;5095220;28;20540;-46
2021/05/23 02:10:45;;;;;;;6.33;1.90;;;;;;;17.31;43.52;100193.06;5093584;28;20782;-48
2021/05/23 02:13:12;;;;;;;11.53;3.37;;;;;;;17.60;42.62;100194.06;5095371;28;20557;-46
2021/05/23 02:15:39;;;;;;;8.93;2.63;;;;;;;17.82;42.52;100192.41;5094473;28;20564;-49
2021/05/23 02:18:08;;;;;;;6.77;2.27;;;;;;;17.93;41.79;100193.31;5095183;28;20471;-48
2021/05/23 02:20:36;;;;;;;15.33;3.63;;;;;;;17.31;43.17;100192.19;5093649;28;20477;-53
2021/05/23 02:23:04;;;;;;;8.27;1.90;;;;;;;17.25;43.32;100188.72;5094927;28;20504;-48
2021/05/23 02:25:33;;;;;;;4.70;1.80;;;;;;;17.39;43.03;100196.56;5094278;28;20980;-48
2021/05/23 02:28:03;;;;;;;11.53;2.10;;;;;;;17.41;42.81;100187.06;5095329;28;20467;-48
2021/05/23 02:30:34;;;;;;;12.33;2.37;;;;;;;17.68;42.06;100193.22;5093714;28;20478;-50
2021/05/23 02:33:04;;;;;;;12.73;2.40;;;;;;;17.88;41.86;100199.34;5093052;28;20509;-49
2021/05/23 02:35:33;;;;;;;7.53;2.37;;;;;;;18.14;41.12;100196.84;5093132;28;20576;-49
2021/05/23 02:38:01;;;;;;;7.17;1.97;;;;;;;17.17;43.30;100192.13;5092772;28;20771;-52
2021/05/23 02:40:29;;;;;;;6.20;2.17;;;;;;;17.06;43.48;100198.16;5093998;28;20468;-48
2021/05/23 02:42:56;;;;;;;7.63;1.67;;;;;;;17.41;42.90;100189.66;5094963;28;20573;-48
2021/05/23 02:45:24;;;;;;;10.67;2.40;;;;;;;17.92;41.91;100196.78;5093713;28;20583;-51
2021/05/23 02:47:52;;;;;;;8.83;2.10;;;;;;;17.29;43.41;100194.81;5094722;28;20454;-49
2021/05/23 02:50:22;;;;;;;13.43;2.23;;;;;;;17.19;43.26;100196.50;5091106;28;20466;-51
2021/05/23 02:52:50;;;;;;;10.50;2.37;;;;;;;16.99;43.72;100201.56;5094864;28;20812;-51
2021/05/23 02:55:17;;;;;;;7.73;1.87;;;;;;;17.10;43.29;100204.25;5091409;28;20871;-51
2021/05/23 02:57:45;;;;;;;13.17;2.60;;;;;;;17.75;42.12;100214.13;5094822;28;20559;-53
2021/05/23 03:00:15;;;;;;;7.50;2.63;;;;;;;17.56;42.73;100206.22;5093296;28;20567;-53
2021/05/23 03:02:42;;;;;;;11.07;2.40;;;;;;;17.22;43.31;100216.50;5094573;28;20551;-50
2021/05/23 03:05:12;;;;;;;6.97;2.10;;;;;;;17.12;43.38;100221.63;5094176;28;20480;-53
2021/05/23 03:07:41;;;;;;;8.50;2.83;;;;;;;17.45;42.94;100216.63;5091795;28;20496;-51
2021/05/23 03:10:12;;;;;;;9.67;2.60;;;;;;;17.20;43.04;100218.22;5092262;28;20479;-53
2021/05/23 03:12:40;;;;;;;7.30;2.97;;;;;;;17.13;43.77;100223.38;5092002;28;20475;-51
2021/05/23 03:15:11;;;;;;;11.37;2.90;;;;;;;16.88;44.13;100231.00;5092921;28;20487;-52
2021/05/23 03:17:38;;;;;;;10.40;2.00;;;;;;;16.90;44.02;100231.00;5091702;28;20456;-52
2021/05/23 03:20:07;;;;;;;6.50;2.33;;;;;;;17.01;44.13;100245.00;5093168;28;20806;-54
2021/05/23 03:22:34;;;;;;;8.37;2.53;;;;;;;17.33;43.21;100238.25;5094079;28;20483;-49
2021/05/23 03:25:02;;;;;;;14.77;2.40;;;;;;;17.17;43.33;100242.50;5093518;28;20472;-50
2021/05/23 03:27:30;;;;;;;8.93;2.67;;;;;;;17.13;43.58;100251.19;5093983;28;20851;-54
2021/05/23 03:29:58;;;;;;;8.77;2.63;;;;;;;16.10;45.22;100254.59;5090691;28;20577;-51
2021/05/23 03:32:25;;;;;;;11.20;2.80;;;;;;;15.84;46.46;100253.41;5093535;28;20460;-46
2021/05/23 03:34:52;;;;;;;9.93;2.80;;;;;;;15.69;46.92;100259.28;5092895;28;20811;-47
2021/05/23 03:37:19;;;;;;;15.80;2.73;;;;;;;15.25;48.07;100266.50;5094193;28;20463;-50
2021/05/23 03:39:47;;;;;;;7.60;2.10;;;;;;;15.63;47.22;100269.59;5092628;28;20465;-51
2021/05/23 03:42:15;;;;;;;9.57;2.40;;;;;;;15.05;48.27;100283.50;5093650;28;20478;-52
2021/05/23 03:44:43;;;;;;;11.30;2.70;;;;;;;15.18;48.10;100279.38;5093287;28;21166;-45
2021/05/23 03:47:10;;;;;;;9.97;2.90;;;;;;;15.13;48.15;100292.31;5094196;28;20459;-46
2021/05/23 03:49:38;;;;;;;9.70;2.90;;;;;;;15.82;47.17;100280.25;5093160;28;20541;-50
2021/05/23 03:52:05;;;;;;;8.30;2.57;;;;;;;15.66;47.13;100282.66;5097284;28;20466;-46
2021/05/23 03:54:33;;;;;;;16.13;2.97;;;;;;;15.83;46.83;100288.06;5096414;28;20481;-49
2021/05/23 03:57:00;;;;;;;8.20;3.17;;;;;;;15.45;47.45;100281.53;5097758;28;20742;-48
2021/05/23 03:59:27;;;;;;;25.43;3.60;;;;;;;15.83;47.03;100284.63;5096809;28;20479;-50
2021/05/23 04:01:55;;;;;;;7.30;2.50;;;;;;;15.42;47.87;100286.66;5097007;28;20457;-48
2021/05/23 04:04:23;;;;;;;10.27;3.13;;;;;;;15.14;48.49;100295.78;5096071;28;20477;-48
2021/05/23 04:06:50;;;;;;;8.07;3.00;;;;;;;15.18;48.50;100298.44;5097409;28;20771;-49
2021/05/23 04:09:18;;;;;;;16.90;2.10;;;;;;;15.44;47.29;100297.94;5093642;28;20456;-47
2021/05/23 04:11:48;;;;;;;11.30;2.13;;;;;;;15.41;47.41;100295.31;5096633;28;20967;-50
2021/05/23 04:14:15;;;;;;;9.07;2.50;;;;;;;15.78;46.93;100293.22;5095785;28;20494;-52
2021/05/23 04:16:42;;;;;;;14.90;3.47;;;;;;;16.06;46.22;100296.19;5097267;28;20463;-47
2021/05/23 04:19:10;;;;;;;10.73;2.97;;;;;;;15.67;46.86;100297.41;5095965;28;20778;-52
2021/05/23 04:21:37;;;;;;;11.90;3.10;;;;;;;15.61;47.05;100294.72;5096356;28;20511;-50
2021/05/23 04:24:05;;;;;;;7.63;2.83;;;;;;;15.49;47.21;100305.84;5096018;28;21268;-53
2021/05/23 04:26:32;;;;;;;16.90;3.50;;;;;;;15.39;47.11;100312.63;5096950;28;20481;-51
2021/05/23 04:28:59;;;;;;;8.27;1.93;;;;;;;15.47;47.14;100310.13;5094412;28;20544;-51
2021/05/23 04:31:26;;;;;;;13.07;3.27;;;;;;;15.51;47.09;100311.91;5096005;28;20900;-50
2021/05/23 04:33:53;;;;;;;8.13;2.87;;;;;;;15.44;47.05;100310.09;5096587;28;20566;-50
2021/05/23 04:36:21;;;;;;;11.63;2.00;;;;;;;15.57;46.74;100305.91;5095320;28;20476;-51
2021/05/23 04:38:49;;;;;;;12.90;2.27;;;;;;;15.42;47.04;100317.00;5096715;28;20549;-48
2021/05/23 04:41:16;;;;;;;14.17;3.50;;;;;;;15.43;46.86;100319.59;5095636;28;20473;-51
2021/05/23 04:43:43;;;;;;;15.40;3.87;;;;;;;15.64;46.41;100326.84;5096337;28;20475;-50
2021/05/23 04:46:13;;;;;;;13.80;2.43;;;;;;;15.12;47.27;100332.09;5095179;28;20475;-52
2021/05/23 04:48:40;;;;;;;9.47;2.53;;;;;;;15.59;46.49;100335.44;5093776;28;20565;-50
2021/05/23 04:51:07;;;;;;;10.73;2.30;;;;;;;15.07;47.67;100345.03;5094887;28;20781;-50
2021/05/23 04:53:35;;;;;;;12.43;3.43;;;;;;;15.65;46.46;100338.13;5096320;28;20945;-48
2021/05/23 04:56:02;;;;;;;18.90;3.10;;;;;;;15.65;46.57;100346.78;5095172;28;20566;-49
2021/05/23 04:58:29;;;;;;;16.07;3.20;;;;;;;15.43;46.94;100343.00;5096360;28;20460;-49
2021/05/23 05:00:56;;;;;;;8.27;1.80;;;;;;;14.85;47.99;100354.19;5094528;28;20926;-50
2021/05/23 05:03:23;;;;;;;15.07;3.60;;;;;;;14.99;48.08;100365.69;5095948;28;20760;-48
2021/05/23 05:05:50;;;;;;;13.07;3.10;;;;;;;15.24;47.14;100355.69;5094727;28;20508;-50
2021/05/23 05:08:17;;;;;;;11.70;2.53;;;;;;;15.57;47.37;100360.50;5096202;28;20463;-52
2021/05/23 05:10:45;;;;;;;13.07;2.33;;;;;;;15.62;46.55;100364.94;5094533;28;20494;-48
2021/05/23 05:13:12;;;;;;;4.47;1.50;;;;;;;15.45;46.83;100363.81;5096007;28;20506;-49
2021/05/23 05:15:39;;;;;;;13.53;2.63;;;;;;;15.16;47.25;100367.69;5091806;28;20490;-49
2021/05/23 05:18:06;;;;;;;18.10;2.53;;;;;;;15.33;46.94;100380.09;5095626;28;20467;-51
2021/05/23 05:20:33;;;;;;;7.53;2.63;;;;;;;15.55;46.18;100381.31;5094408;28;20472;-51
2021/05/23 05:23:00;;;;;;;10.90;2.20;;;;;;;15.43;46.47;100386.31;5093287;28;20486;-48
2021/05/23 05:25:27;;;;;;;7.60;2.00;;;;;;;15.65;46.45;100377.13;5095171;28;20470;-48
2021/05/23 05:27:55;;;;;;;7.50;2.40;;;;;;;15.46;46.83;100387.25;5095619;28;20526;-50
2021/05/23 05:30:24;;;;;;;10.43;2.90;;;;;;;15.16;47.26;100388.47;5093954;28;20559;-49
2021/05/23 05:32:51;;;;;;;10.00;2.20;;;;;;;15.31;46.69;100397.38;5095489;28;20481;-50
2021/05/23 05:35:18;;;;;;;7.13;2.30;;;;;;;15.50;46.72;100395.97;5093978;28;20480;-53
2021/05/23 05:37:45;;;;;;;17.73;2.50;;;;;;;15.44;46.64;100396.72;5095457;28;20946;-48
2021/05/23 05:40:13;;;;;;;7.40;1.97;;;;;;;14.94;47.42;100397.63;5094339;28;20760;-48
2021/05/23 05:42:40;;;;;;;7.53;2.40;;;;;;;14.88;47.89;100398.41;5092944;28;20555;-48
2021/05/23 05:45:10;;;;;;;10.23;2.50;;;;;;;15.37;46.61;100400.06;5094047;28;20856;-50
2021/05/23 05:47:37;;;;;;;8.27;2.57;;;;;;;15.39;46.46;100407.06;5095453;28;20846;-48
2021/05/23 05:50:05;;;;;;;13.30;2.70;;;;;;;15.74;46.20;100398.06;5094087;28;20527;-52
2021/05/23 05:52:33;;;;;;;19.77;2.73;;;;;;;15.74;45.65;100408.47;5095276;28;20960;-48
2021/05/23 05:55:00;;;;;;;10.47;1.90;;;;;;;15.86;45.14;100406.88;5091592;28;20491;-52
2021/05/23 05:57:27;;;;;;;9.80;2.00;;;;;;;15.20;46.26;100400.69;5095065;28;20479;-46
2021/05/23 05:59:54;;;;;;;9.43;1.83;;;;;;;15.60;45.77;100405.66;5093986;28;20553;-49
2021/05/23 06:02:22;;;;;;;10.97;1.90;;;;;;;15.36;45.86;100406.13;5094658;28;20547;-51
2021/05/23 06:04:50;;;;;;;12.13;2.60;;;;;;;15.64;45.48;100396.19;5093812;28;20465;-49
2021/05/23 06:07:18;;;;;;;12.63;2.17;;;;;;;15.49;45.89;100408.06;5095018;28;20921;-50
2021/05/23 06:09:45;;;;;;;12.13;2.40;;;;;;;15.93;45.72;100414.84;5094276;28;20481;-51
2021/05/23 06:12:12;;;;;;;15.23;2.33;;;;;;;16.39;44.57;100407.59;5094596;28;20461;-48
2021/05/23 06:14:39;;;;;;;11.23;4.90;;;;;;;16.27;44.49;100406.63;5093816;28;20470;-52
2021/05/23 06:17:06;;;;;;;10.20;2.80;;;;;;;16.07;44.55;100416.75;5095131;28;20568;-51
2021/05/23 06:19:34;;;;;;;17.47;3.50;;;;;;;16.42;44.10;100412.88;5093465;28;20492;-53
2021/05/23 06:22:02;;;;;;;11.20;2.73;;;;;;;16.54;43.92;100415.63;5091866;28;20544;-49
2021/05/23 06:24:29;;;;;;;7.87;2.20;;;;;;;16.29;43.69;100423.13;5093286;28;20504;-51
2021/05/23 06:26:56;;;;;;;11.50;3.40;;;;;;;16.12;44.46;100429.81;5094839;28;20537;-52
2021/05/23 06:29:23;;;;;;;13.17;1.70;;;;;;;15.44;45.20;100434.84;5093670;28;20477;-52
2021/05/23 06:31:50;;;;;;;11.17;2.70;;;;;;;16.27;44.23;100440.47;5094463;28;20457;-47
2021/05/23 06:34:17;;;;;;;12.57;2.07;;;;;;;16.21;43.58;100445.59;5093210;28;20484;-51
2021/05/23 06:36:45;;;;;;;14.40;2.90;;;;;;;16.80;42.25;100441.06;5094468;28;20473;-48
2021/05/23 06:39:12;;;;;;;12.70;2.33;;;;;;;16.86;42.42;100435.94;5094095;28;20549;-53
2021/05/23 06:41:40;;;;;;;9.33;1.60;;;;;;;16.05;44.15;100445.34;5091684;28;20491;-51
2021/05/23 06:44:07;;;;;;;8.43;2.60;;;;;;;16.94;42.52;100437.75;5093512;28;20481;-49
2021/05/23 06:46:34;;;;;;;10.47;2.20;;;;;;;17.30;41.61;100446.81;5094526;28;20478;-47
2021/05/23 06:49:01;;;;;;;12.10;2.60;;;;;;;16.60;43.43;100456.47;5091412;28;20453;-52
2021/05/23 06:51:28;;;;;;;9.70;2.20;;;;;;;16.95;42.10;100453.41;5094156;28;20484;-47
2021/05/23 06:53:56;;;;;;;9.53;2.17;;;;;;;16.37;43.34;100462.28;5094214;28;20477;-51
2021/05/23 06:56:23;;;;;;;12.23;2.40;;;;;;;17.23;41.52;100465.88;5093694;28;20505;-50
2021/05/23 06:58:50;;;;;;;12.83;3.57;;;;;;;17.37;41.37;100469.47;5094717;28;20456;-51
2021/05/23 07:01:17;;;;;;;8.63;1.97;;;;;;;16.72;41.92;100471.38;5092879;28;20481;-52
2021/05/23 07:03:45;;;;;;;12.67;2.30;;;;;;;17.06;42.18;100469.19;5094356;28;20478;-48
2021/05/23 07:06:12;;;;;;;14.67;2.60;;;;;;;17.09;42.70;100483.97;5092782;28;20564;-49
2021/05/23 07:08:39;;;;;;;19.47;2.73;;;;;;;17.10;42.10;100476.19;5094569;28;20458;-50
2021/05/23 07:11:07;;;;;;;10.27;2.60;;;;;;;17.14;41.83;100477.94;5093243;28;20473;-45
2021/05/23 07:13:34;;;;;;;11.07;2.50;;;;;;;16.87;42.14;100489.78;5094485;28;20478;-47
2021/05/23 07:16:01;;;;;;;17.00;4.13;;;;;;;16.78;42.31;100487.09;5090121;28;20478;-51
2021/05/23 07:18:28;;;;;;;11.17;1.97;;;;;;;16.68;41.77;100487.81;5094304;28;20493;-47
2021/05/23 07:20:59;;;;;;;10.80;1.87;;;;;;;16.64;41.80;100499.03;5092552;28;20482;-48
2021/05/23 07:23:26;;;;;;;14.70;2.77;;;;;;;17.42;40.59;100492.97;5095378;28;20486;-53
2021/05/23 07:25:53;;;;;;;12.87;3.17;;;;;;;17.69;40.35;100491.47;5096898;28;20488;-48
2021/05/23 07:28:21;;;;;;;7.83;2.07;;;;;;;17.79;40.55;100500.25;5095458;28;20462;-51
2021/05/23 07:30:49;;;;;;;14.87;4.20;;;;;;;16.76;42.14;100501.81;5096370;28;20929;-50
2021/05/23 07:33:17;;;;;;;12.63;2.67;;;;;;;17.29;40.49;100492.00;5097901;28;20484;-52
2021/05/23 07:35:44;;;;;;;8.83;3.17;;;;;;;17.27;41.17;100501.53;5096621;28;20481;-49
2021/05/23 07:38:11;;;;;;;16.50;3.33;;;;;;;17.64;40.77;100509.69;5097945;28;20460;-47
2021/05/23 07:40:39;;;;;;;10.80;1.87;;;;;;;17.68;39.85;100510.59;5096149;28;20500;-48
2021/05/23 07:43:06;;;;;;;7.60;2.10;;;;;;;18.05;39.14;100512.63;5097466;28;20508;-46
2021/05/23 07:45:34;;;;;;;10.70;2.10;;;;;;;18.17;38.98;100509.25;5096675;28;20476;-46
2021/05/23 07:48:01;;;;;;;6.37;1.50;;;;;;;17.35;40.04;100507.72;5094729;28;20464;-50
2021/05/23 07:50:28;;;;;;;6.03;1.30;;;;;;;17.54;39.59;100523.53;5096118;28;20505;-49
2021/05/23 07:52:55;;;;;;;9.17;2.00;;;;;;;18.14;38.60;100523.16;5097679;28;20586;-46
2021/05/23 07:55:22;;;;;;;12.70;4.00;;;;;;;17.59;39.14;100532.25;5094378;28;20477;-48
2021/05/23 07:57:49;;;;;;;12.03;2.20;;;;;;;17.76;39.19;100528.94;5097406;28;20548;-50
2021/05/23 08:00:17;;;;;;;10.73;2.10;;;;;;;17.86;39.24;100540.31;5095758;28;20560;-48
2021/05/23 08:02:45;;;;;;;10.10;2.40;;;;;;;18.47;38.58;100529.44;5097544;28;20487;-53
2021/05/23 08:05:12;;;;;;;9.87;2.00;;;;;;;18.33;38.38;100536.31;5096190;28;20474;-52
2021/05/23 08:07:40;;;;;;;9.90;1.87;;;;;;;17.63;39.04;100534.03;5097225;28;20489;-48
2021/05/23 08:10:08;;;;;;;12.33;2.63;;;;;;;17.99;40.42;100549.97;5095797;28;20826;-49
2021/05/23 08:12:35;;;;;;;5.77;1.70;;;;;;;17.96;38.24;100547.38;5097348;28;20810;-52
2021/05/23 08:15:03;;;;;;;14.93;2.33;;;;;;;18.22;37.74;100549.31;5093473;28;20500;-53
2021/05/23 08:17:31;;;;;;;11.97;2.70;;;;;;;17.92;38.91;100546.47;5097346;28;20481;-50
2021/05/23 08:19:58;;;;;;;13.33;1.67;;;;;;;17.53;37.93;100558.28;5095701;28;20915;-46
2021/05/23 08:22:26;;;;;;;5.50;1.77;;;;;;;17.54;38.29;100560.03;5096850;28;20460;-50
2021/05/23 08:24:53;;;;;;;11.93;4.10;;;;;;;17.93;37.86;100565.59;5095664;28;20505;-53
2021/05/23 08:27:20;;;;;;;10.07;2.03;;;;;;;18.19;38.47;100563.22;5096900;28;20778;-49
2021/05/23 08:29:47;;;;;;;14.10;3.60;;;;;;;18.52;38.69;100571.28;5095246;28;20790;-50
2021/05/23 08:32:14;;;;;;;11.93;2.20;;;;;;;18.98;37.16;100574.97;5096544;28;20856;-51
2021/05/23 08:34:42;;;;;;;10.73;2.00;;;;;;;18.28;37.82;100574.59;5092300;28;20493;-51
2021/05/23 08:37:10;;;;;;;10.73;1.97;;;;;;;18.05;37.80;100581.38;5096805;28;20482;-51
2021/05/23 08:39:37;;;;;;;8.57;2.27;;;;;;;18.82;36.31;100577.50;5095491;28;20478;-51
2021/05/23 08:42:05;;;;;;;7.90;2.00;;;;;;;18.72;36.77;100580.97;5096174;28;20457;-52
2021/05/23 08:44:32;;;;;;;5.70;1.60;;;;;;;18.57;36.33;100579.13;5095444;28;20478;-47
2021/05/23 08:47:01;;;;;;;11.73;1.83;;;;;;;18.17;37.04;100582.34;5096772;28;20461;-48
2021/05/23 08:49:30;;;;;;;4.80;1.20;;;;;;;18.26;36.63;100586.75;5095443;28;20543;-53
2021/05/23 08:52:02;;;;;;;12.90;1.77;;;;;;;18.55;36.71;100586.09;5093413;28;20447;-49
2021/05/23 08:54:30;;;;;;;8.90;1.77;;;;;;;18.69;36.33;100589.66;5095065;28;20467;-49
2021/05/23 08:56:57;;;;;;;10.33;2.23;;;;;;;18.33;36.97;100591.16;5096602;28;20490;-53
2021/05/23 08:59:24;;;;;;;4.97;1.70;;;;;;;18.81;36.10;100599.28;5095296;28;20494;-53
2021/05/23 09:01:52;;;;;;;6.97;1.70;;;;;;;18.36;36.80;100609.47;5095672;28;20450;-51
2021/05/23 09:04:19;;;;;;;6.00;1.40;;;;;;;17.97;37.18;100608.25;5094779;28;20480;-52
2021/05/23 09:06:47;;;;;;;6.30;1.37;;;;;;;18.39;36.31;100603.38;5096146;28;20536;-52
2021/05/23 09:09:16;;;;;;;6.20;1.10;;;;;;;17.79;36.68;100612.47;5094933;28;20458;-53
2021/05/23 09:11:51;;;;;;;9.40;2.10;;;;;;;18.23;36.45;100605.88;5093257;28;20812;-51
2021/05/23 09:14:32;;;;;;;13.10;2.20;;;;;;;18.59;36.61;100606.13;5094523;28;20488;-51
2021/05/23 09:16:59;;;;;;;7.50;1.50;;;;;;;18.84;35.75;100621.94;5096002;28;20477;-49
2021/05/23 09:19:27;;;;;;;7.50;1.70;;;;;;;18.85;36.24;100608.91;5094576;28;20923;-46
2021/05/23 09:21:54;;;;;;;11.63;1.73;;;;;;;19.11;36.47;100615.13;5095692;28;20479;-52
2021/05/23 09:24:21;;;;;;;6.70;2.10;;;;;;;19.52;35.85;100617.03;5094330;28;20490;-51
2021/05/23 09:26:50;;;;;;;6.87;1.73;;;;;;;19.86;35.17;100620.56;5096023;28;20478;-47
2021/05/23 09:29:19;;;;;;;7.33;1.70;;;;;;;19.81;35.38;100613.59;5094582;28;20470;-49
2021/05/23 09:31:54;;;;;;;10.77;1.60;;;;;;;19.66;34.55;100624.91;5095304;28;20446;-53
2021/05/23 09:34:24;;;;;;;9.80;1.87;;;;;;;19.35;35.09;100627.44;5094665;28;20485;-52
2021/05/23 09:36:51;;;;;;;9.40;2.00;;;;;;;18.92;34.78;100630.69;5095716;28;20474;-48
2021/05/23 09:39:18;;;;;;;4.97;1.37;;;;;;;18.41;36.05;100633.00;5094811;28;20455;-46
2021/05/23 09:41:47;;;;;;;5.60;1.17;;;;;;;18.87;35.47;100629.81;5095334;28;20458;-52
2021/05/23 09:44:18;;;;;;;10.07;3.00;;;;;;;19.34;35.64;100630.06;5094122;28;20560;-53
2021/05/23 09:46:55;;;;;;;6.97;1.77;;;;;;;19.80;35.08;100639.75;5091987;28;20454;-50
2021/05/23 09:49:23;;;;;;;9.13;2.00;;;;;;;19.26;35.96;100635.25;5091678;28;20501;-49
2021/05/23 09:51:52;;;;;;;9.77;1.90;;;;;;;18.95;36.84;100641.19;5094730;28;20446;-50
2021/05/23 09:54:20;;;;;;;10.60;2.40;;;;;;;19.01;36.87;100635.09;5094388;28;20477;-50
2021/05/23 09:56:47;;;;;;;4.90;1.27;;;;;;;18.99;36.51;100642.97;5095353;28;20479;-52
2021/05/23 09:59:23;;;;;;;7.90;2.07;;;;;;;19.34;36.03;100654.47;5093944;28;20482;-52
2021/05/23 10:01:51;;;;;;;14.03;2.00;;;;;;;20.05;35.03;100648.53;5093401;28;20453;-50
2021/05/23 10:04:22;;;;;;;6.83;1.90;;;;;;;19.62;34.81;100659.78;5093639;28;20484;-50
2021/05/23 10:06:59;;;;;;;7.53;1.90;;;;;;;19.74;34.75;100640.59;5095075;28;20470;-47
2021/05/23 10:09:27;;;;;;;9.40;2.00;;;;;;;19.55;35.46;100653.66;5094341;28;20466;-54
2021/05/23 10:11:55;;;;;;;6.57;2.00;;;;;;;19.41;35.69;100655.34;5095260;28;20476;-49
2021/05/23 10:14:23;;;;;;;8.57;2.70;;;;;;;19.90;34.57;100648.50;5094323;28;20471;-53
2021/05/23 10:16:51;;;;;;;8.20;2.73;;;;;;;19.68;35.33;100658.91;5095501;28;20521;-53
2021/05/23 10:19:22;;;;;;;21.43;10.13;;;;;;;19.33;35.22;100670.16;5091871;28;20470;-51
2021/05/23 10:21:53;;;;;;;15.30;3.80;;;;;;;19.77;34.92;100658.06;5112465;28;20506;-53
2021/05/23 10:24:25;;;;;;;10.13;3.40;;;;;;;19.34;35.47;100669.28;5113815;27;20648;-55
2021/05/23 10:26:55;;;;;;;10.97;4.83;;;;;;;19.39;34.21;100671.03;5115749;28;20454;-45
2021/05/23 10:29:24;;;;;;;7.80;3.03;;;;;;;19.50;34.68;100671.09;5108677;28;20557;-51
2021/05/23 10:31:51;;;;;;;8.83;3.10;;;;;;;19.50;34.70;100678.94;5094829;28;20461;-50
2021/05/23 10:34:18;;;;;;;12.77;6.73;;;;;;;19.48;35.50;100682.41;5093907;28;20565;-49
2021/05/23 10:36:46;;;;;;;14.33;5.97;;;;;;;19.26;35.13;100683.19;5094774;28;20508;-49
2021/05/23 10:39:15;;;;;;;30.90;15.67;;;;;;;20.03;34.31;100683.44;5093480;28;20784;-53
2021/05/23 10:41:43;;;;;;;15.40;6.03;;;;;;;19.51;34.52;100680.69;5094716;28;20457;-51
2021/05/23 10:44:27;;;;;;;11.50;4.77;;;;;;;19.13;35.11;100686.63;5093671;28;20486;-48
2021/05/23 10:46:54;;;;;;;5.53;2.07;;;;;;;19.98;34.27;100683.44;5094568;28;20913;-54
2021/05/23 10:49:21;;;;;;;10.83;2.70;;;;;;;19.54;34.93;100688.53;5095715;28;20550;-52
2021/05/23 10:51:52;;;;;;;34.60;15.20;;;;;;;20.33;33.77;100690.47;5094645;28;20543;-51
2021/05/23 10:54:19;;;;;;;11.40;3.40;;;;;;;19.81;34.17;100692.13;5101570;27;20482;-46
2021/05/23 10:56:47;;;;;;;6.80;1.83;;;;;;;19.73;34.96;100693.81;5104267;28;20487;-50
2021/05/23 10:59:14;;;;;;;9.20;3.23;;;;;;;20.06;33.65;100693.94;5097778;28;20456;-53
2021/05/23 11:01:43;;;;;;;6.90;2.53;;;;;;;19.99;33.98;100694.81;5098475;28;20468;-53
2021/05/23 11:04:13;;;;;;;13.20;6.30;;;;;;;20.17;34.63;100693.94;5097509;28;20482;-48
2021/05/23 11:06:42;;;;;;;6.53;2.10;;;;;;;20.48;34.15;100699.19;5098416;28;20473;-51
2021/05/23 11:09:11;;;;;;;12.40;5.30;;;;;;;20.16;34.76;100698.31;5098293;28;20463;-50
2021/05/23 11:11:39;;;;;;;11.70;4.10;;;;;;;20.27;34.11;100700.94;5096092;28;20556;-51
2021/05/23 11:14:21;;;;;;;10.70;2.70;;;;;;;20.52;34.30;100698.31;5082638;28;20497;-45
2021/05/23 11:16:51;;;;;;;12.77;4.50;;;;;;;20.66;33.93;100700.06;5081706;28;20484;-52
2021/05/23 11:19:19;;;;;;;7.57;3.27;;;;;;;20.95;33.28;100693.91;5077163;28;20480;-49
2021/05/23 11:21:47;;;;;;;8.67;3.40;;;;;;;20.84;32.62;100692.19;5077860;28;20461;-51
2021/05/23 11:24:16;;;;;;;3.87;1.40;;;;;;;20.43;33.91;100685.22;5077167;28;20488;-49
2021/05/23 11:26:44;;;;;;;7.73;2.70;;;;;;;20.71;33.29;100708.78;5097677;28;20554;-51